Time;durP1;ratioP1;P1;durP2;ratioP2;P2;SDS_P1;SDS_P2;PMS_P1;PMS_P2;Temp;Humidity;BMP_temperature;BMP_pressure;BME280_temperature;BME280_humidity;BME280_pressure;Samples;Min_cycle;Max_cycle;Signal;HPM_P1;HPM_P2
2022/11/26 00:01:47;;;;;;;;;;;;;;;;;;7364780;19;791;-66
2022/11/26 00:04:15;;;;;;;;;;;;;;;;;;7367235;19;1827;-65
2022/11/26 00:06:43;;;;;;;;;;;;;;;;;;7364800;19;839;-64
2022/11/26 00:09:11;;;;;;;;;;;;;;;;;;7363130;19;836;-64
2022/11/26 00:11:39;;;;;;;;;;;;;;;;;;7362313;19;1849;-64
2022/11/26 00:14:08;;;;;;;;;;;;;;;;;;7363047;19;1342;-64
2022/11/26 00:16:36;;;;;;;;;;;;;;;;;;7367505;19;1850;-65
2022/11/26 00:19:04;;;;;;;;;;;;;;;;;;7361938;19;851;-65
2022/11/26 00:21:32;;;;;;;;;;;;;;;;;;7368497;19;1982;-65
2022/11/26 00:24:01;;;;;;;;;;;;;;;;;;7363005;19;1277;-65
2022/11/26 00:26:29;;;;;;;;;;;;;;;;;;7364473;19;854;-66
2022/11/26 00:28:58;;;;;;;;;;;;;;;;;;7362976;19;825;-65
2022/11/26 00:31:27;;;;;;;;;;;;;;;;;;7363159;19;1842;-63
2022/11/26 00:33:55;;;;;;;;;;;;;;;;;;7364500;19;1319;-64
2022/11/26 00:36:24;;;;;;;;;;;;;;;;;;7372874;19;1841;-63
2022/11/26 00:38:52;;;;;;;;;;;;;;;;;;7372244;19;1892;-63
2022/11/26 00:41:20;;;;;;;;;;;;;;;;;;7371074;19;799;-64
2022/11/26 00:43:48;;;;;;;;;;;;;;;;;;7370484;19;1227;-64
2022/11/26 00:46:16;;;;;;;;;;;;;;;;;;7370371;19;877;-63
2022/11/26 00:48:44;;;;;;;;;;;;;;;;;;7369774;19;807;-64
2022/11/26 00:51:12;;;;;;;;;;;;;;;;;;7370616;19;1955;-65
2022/11/26 00:53:41;;;;;;;;;;;;;;;;;;7372135;19;1709;-63
2022/11/26 00:56:09;;;;;;;;;;;;;;;;;;7370696;19;775;-64
2022/11/26 00:58:37;;;;;;;;;;;;;;;;;;7376580;19;843;-65
2022/11/26 01:01:05;;;;;;;;;;;;;;;;;;7377635;19;843;-64
2022/11/26 01:03:33;;;;;;;;;;;;;;;;;;7374338;19;1364;-64
2022/11/26 01:06:01;;;;;;;;;;;;;;;;;;7379406;19;2190;-64
2022/11/26 01:08:29;;;;;;;;;;;;;;;;;;7377669;19;2138;-64
2022/11/26 01:10:58;;;;;;;;;;;;;;;;;;7375417;19;1972;-64
2022/11/26 01:13:26;;;;;;;;;;;;;;;;;;7366443;19;1861;-64
2022/11/26 01:15:54;;;;;;;;;;;;;;;;;;7370713;19;898;-64
2022/11/26 01:18:22;;;;;;;;;;;;;;;;;;7369377;19;868;-65
2022/11/26 01:20:50;;;;;;;;;;;;;;;;;;7369569;19;838;-64
2022/11/26 01:23:18;;;;;;;;;;;;;;;;;;7372564;19;1870;-65
2022/11/26 01:25:46;;;;;;;;;;;;;;;;;;7371623;19;1825;-64
2022/11/26 01:28:15;;;;;;;;;;;;;;;;;;7368542;19;745;-64
2022/11/26 01:30:43;;;;;;;;;;;;;;;;;;7369681;19;870;-64
2022/11/26 01:33:11;;;;;;;;;;;;;;;;;;7367637;19;1846;-64
2022/11/26 01:35:39;;;;;;;;;;;;;;;;;;7369273;19;1589;-64
2022/11/26 01:38:07;;;;;;;;;;;;;;;;;;7369457;19;878;-64
2022/11/26 01:40:35;;;;;;;;;;;;;;;;;;7368456;19;855;-64
2022/11/26 01:43:03;;;;;;;;;;;;;;;;;;7372284;19;1882;-65
2022/11/26 01:45:31;;;;;;;;;;;;;;;;;;7367529;19;882;-65
2022/11/26 01:48:00;;;;;;;;;;;;;;;;;;7367147;19;790;-65
2022/11/26 01:50:28;;;;;;;;;;;;;;;;;;7370608;19;1859;-65
2022/11/26 01:52:56;;;;;;;;;;;;;;;;;;7368296;19;1907;-65
2022/11/26 01:55:24;;;;;;;;;;;;;;;;;;7369003;19;848;-66
2022/11/26 01:57:52;;;;;;;;;;;;;;;;;;7367850;19;894;-66
2022/11/26 02:00:21;;;;;;;;;;;;;;;;;;7368655;19;771;-65
2022/11/26 02:02:49;;;;;;;;;;;;;;;;;;7368671;19;1330;-66
2022/11/26 02:05:17;;;;;;;;;;;;;;;;;;7370803;19;1842;-66
2022/11/26 02:07:46;;;;;;;;;;;;;;;;;;7368169;19;819;-66
2022/11/26 02:10:14;;;;;;;;;;;;;;;;;;7366461;19;796;-67
2022/11/26 02:12:43;;;;;;;;;;;;;;;;;;7366894;19;1897;-67
2022/11/26 02:15:11;;;;;;;;;;;;;;;;;;7364978;19;1314;-68
2022/11/26 02:17:39;;;;;;;;;;;;;;;;;;7367837;19;800;-66
2022/11/26 02:20:08;;;;;;;;;;;;;;;;;;7369824;19;1877;-67
2022/11/26 02:22:36;;;;;;;;;;;;;;;;;;7368679;19;1876;-65
2022/11/26 02:25:05;;;;;;;;;;;;;;;;;;7364774;19;1270;-66
2022/11/26 02:27:33;;;;;;;;;;;;;;;;;;7367116;19;807;-66
2022/11/26 02:30:01;;;;;;;;;;;;;;;;;;7367789;19;807;-67
2022/11/26 02:32:29;;;;;;;;;;;;;;;;;;7366154;19;1840;-68
2022/11/26 02:34:57;;;;;;;;;;;;;;;;;;7368859;19;1883;-66
2022/11/26 02:37:25;;;;;;;;;;;;;;;;;;7372010;19;2116;-65
2022/11/26 02:39:53;;;;;;;;;;;;;;;;;;7366631;19;866;-64
2022/11/26 02:42:22;;;;;;;;;;;;;;;;;;7367577;19;840;-65
2022/11/26 02:44:50;;;;;;;;;;;;;;;;;;7365208;19;1346;-65
2022/11/26 02:47:18;;;;;;;;;;;;;;;;;;7367429;19;1889;-66
2022/11/26 02:49:46;;;;;;;;;;;;;;;;;;7366830;19;885;-64
2022/11/26 02:52:14;;;;;;;;;;;;;;;;;;7365740;19;1842;-64
2022/11/26 02:54:42;;;;;;;;;;;;;;;;;;7365415;19;1891;-66
2022/11/26 02:57:10;;;;;;;;;;;;;;;;;;7368992;19;1864;-66
2022/11/26 02:59:39;;;;;;;;;;;;;;;;;;7366571;19;851;-67
2022/11/26 03:02:07;;;;;;;;;;;;;;;;;;7367448;19;1889;-65
2022/11/26 03:04:35;;;;;;;;;;;;;;;;;;7364367;19;1721;-65
2022/11/26 03:07:03;;;;;;;;;;;;;;;;;;7366529;19;852;-63
2022/11/26 03:09:31;;;;;;;;;;;;;;;;;;7366018;19;855;-66
2022/11/26 03:12:00;;;;;;;;;;;;;;;;;;7366528;19;1833;-66
2022/11/26 03:14:28;;;;;;;;;;;;;;;;;;7363613;19;1266;-65
2022/11/26 03:16:56;;;;;;;;;;;;;;;;;;7369504;19;1917;-64
2022/11/26 03:19:24;;;;;;;;;;;;;;;;;;7365592;19;896;-65
2022/11/26 03:21:52;;;;;;;;;;;;;;;;;;7366430;19;848;-65
2022/11/26 03:24:20;;;;;;;;;;;;;;;;;;7363858;19;1341;-64
2022/11/26 03:26:51;;;;;;;;;;;;;;;;;;7363153;19;1023;-64
2022/11/26 03:29:19;;;;;;;;;;;;;;;;;;7365056;19;847;-63
2022/11/26 03:31:47;;;;;;;;;;;;;;;;;;7368133;19;1864;-65
2022/11/26 03:34:15;;;;;;;;;;;;;;;;;;7364100;19;1275;-64
2022/11/26 03:36:44;;;;;;;;;;;;;;;;;;7366095;19;859;-64
2022/11/26 03:39:12;;;;;;;;;;;;;;;;;;7365239;19;888;-65
2022/11/26 03:41:42;;;;;;;;;;;;;;;;;;7365130;19;848;-65
2022/11/26 03:44:11;;;;;;;;;;;;;;;;;;7364658;19;1923;-64
2022/11/26 03:46:39;;;;;;;;;;;;;;;;;;7365552;19;821;-65
2022/11/26 03:49:07;;;;;;;;;;;;;;;;;;7365011;19;821;-65
2022/11/26 03:51:35;;;;;;;;;;;;;;;;;;7363597;19;808;-64
2022/11/26 03:54:03;;;;;;;;;;;;;;;;;;7361644;19;1852;-65
2022/11/26 03:56:31;;;;;;;;;;;;;;;;;;7364503;19;856;-66
2022/11/26 03:58:59;;;;;;;;;;;;;;;;;;7365283;19;1838;-64
2022/11/26 04:01:27;;;;;;;;;;;;;;;;;;7363059;19;884;-65
2022/11/26 04:03:56;;;;;;;;;;;;;;;;;;7363361;19;1279;-65
2022/11/26 04:06:24;;;;;;;;;;;;;;;;;;7364439;19;875;-64
2022/11/26 04:08:52;;;;;;;;;;;;;;;;;;7369659;19;863;-65
2022/11/26 04:11:20;;;;;;;;;;;;;;;;;;7377183;19;852;-65
2022/11/26 04:13:51;;;;;;;;;;;;;;;;;;7379200;19;1889;-66
2022/11/26 04:16:19;;;;;;;;;;;;;;;;;;7378530;19;872;-66
2022/11/26 04:18:47;;;;;;;;;;;;;;;;;;7373900;19;874;-66
2022/11/26 04:21:15;;;;;;;;;;;;;;;;;;7371161;19;858;-66
2022/11/26 04:23:43;;;;;;;;;;;;;;;;;;7369755;19;1348;-66
2022/11/26 04:26:12;;;;;;;;;;;;;;;;;;7372137;19;1829;-66
2022/11/26 04:28:40;;;;;;;;;;;;;;;;;;7369400;19;844;-66
2022/11/26 04:31:08;;;;;;;;;;;;;;;;;;7370336;19;865;-66
2022/11/26 04:33:36;;;;;;;;;;;;;;;;;;7369283;19;1840;-65
2022/11/26 04:36:04;;;;;;;;;;;;;;;;;;7370327;19;800;-66
2022/11/26 04:38:32;;;;;;;;;;;;;;;;;;7369281;19;817;-66
2022/11/26 04:41:00;;;;;;;;;;;;;;;;;;7371360;19;1792;-66
2022/11/26 04:43:29;;;;;;;;;;;;;;;;;;7372435;19;1763;-66
2022/11/26 04:45:57;;;;;;;;;;;;;;;;;;7370676;19;859;-66
2022/11/26 04:48:25;;;;;;;;;;;;;;;;;;7369541;19;771;-66
2022/11/26 04:50:53;;;;;;;;;;;;;;;;;;7370209;19;900;-66
2022/11/26 04:53:21;;;;;;;;;;;;;;;;;;7368761;19;1855;-64
2022/11/26 04:55:49;;;;;;;;;;;;;;;;;;7371786;19;1912;-64
2022/11/26 04:58:17;;;;;;;;;;;;;;;;;;7368887;19;859;-66
2022/11/26 05:00:46;;;;;;;;;;;;;;;;;;7368315;19;879;-65
2022/11/26 05:03:14;;;;;;;;;;;;;;;;;;7367661;19;1279;-66
2022/11/26 05:05:42;;;;;;;;;;;;;;;;;;7369120;19;809;-66
2022/11/26 05:08:10;;;;;;;;;;;;;;;;;;7369074;19;848;-66
2022/11/26 05:10:38;;;;;;;;;;;;;;;;;;7374123;19;1892;-65
2022/11/26 05:13:06;;;;;;;;;;;;;;;;;;7367227;19;1858;-65
2022/11/26 05:15:34;;;;;;;;;;;;;;;;;;7369495;19;816;-65
2022/11/26 05:18:02;;;;;;;;;;;;;;;;;;7370508;19;1867;-65
2022/11/26 05:20:31;;;;;;;;;;;;;;;;;;7366049;19;738;-66
2022/11/26 05:22:59;;;;;;;;;;;;;;;;;;7368838;19;1766;-67
2022/11/26 05:25:27;;;;;;;;;;;;;;;;;;7368727;19;867;-66
2022/11/26 05:27:55;;;;;;;;;;;;;;;;;;7368443;19;816;-66
2022/11/26 05:30:23;;;;;;;;;;;;;;;;;;7369314;19;875;-66
2022/11/26 05:32:51;;;;;;;;;;;;;;;;;;7368500;19;1860;-66
2022/11/26 05:35:19;;;;;;;;;;;;;;;;;;7369401;19;796;-66
2022/11/26 05:37:48;;;;;;;;;;;;;;;;;;7369487;19;1654;-68
2022/11/26 05:40:16;;;;;;;;;;;;;;;;;;7368261;19;858;-65
2022/11/26 05:42:44;;;;;;;;;;;;;;;;;;7368801;19;828;-66
2022/11/26 05:45:12;;;;;;;;;;;;;;;;;;7366762;19;1271;-66
2022/11/26 05:47:40;;;;;;;;;;;;;;;;;;7368053;19;798;-66
2022/11/26 05:50:08;;;;;;;;;;;;;;;;;;7365786;19;791;-66
2022/11/26 05:52:36;;;;;;;;;;;;;;;;;;7370196;19;1857;-65
2022/11/26 05:55:04;;;;;;;;;;;;;;;;;;7365348;19;1270;-66
2022/11/26 05:57:33;;;;;;;;;;;;;;;;;;7368322;19;898;-66
2022/11/26 06:00:01;;;;;;;;;;;;;;;;;;7368146;19;796;-66
2022/11/26 06:02:39;;;;;;;;;;;;;;;;;;7369209;19;595;-64
2022/11/26 06:05:07;;;;;;;;;;;;;;;;;;7365558;19;1279;-65
2022/11/26 06:07:35;;;;;;;;;;;;;;;;;;7371926;19;1803;-63
2022/11/26 06:10:04;;;;;;;;;;;;;;;;;;7366633;19;835;-64
2022/11/26 06:12:32;;;;;;;;;;;;;;;;;;7370732;19;1978;-66
2022/11/26 06:15:00;;;;;;;;;;;;;;;;;;7366028;19;1280;-65
2022/11/26 06:17:28;;;;;;;;;;;;;;;;;;7368313;19;718;-65
2022/11/26 06:19:56;;;;;;;;;;;;;;;;;;7367488;19;1870;-66
2022/11/26 06:22:24;;;;;;;;;;;;;;;;;;7368376;19;832;-66
2022/11/26 06:24:53;;;;;;;;;;;;;;;;;;7365049;19;1339;-66
2022/11/26 06:27:21;;;;;;;;;;;;;;;;;;7367420;19;757;-65
2022/11/26 06:29:49;;;;;;;;;;;;;;;;;;7366917;19;866;-66
2022/11/26 06:32:17;;;;;;;;;;;;;;;;;;7368266;19;1725;-65
2022/11/26 06:34:45;;;;;;;;;;;;;;;;;;7366266;19;1950;-65
2022/11/26 06:37:13;;;;;;;;;;;;;;;;;;7367206;19;761;-66
2022/11/26 06:39:41;;;;;;;;;;;;;;;;;;7366752;19;859;-64
2022/11/26 06:42:09;;;;;;;;;;;;;;;;;;7370692;19;1839;-66
2022/11/26 06:44:38;;;;;;;;;;;;;;;;;;7364337;19;1283;-66
2022/11/26 06:47:06;;;;;;;;;;;;;;;;;;7367238;19;808;-66
2022/11/26 06:49:34;;;;;;;;;;;;;;;;;;7370303;19;1826;-65
2022/11/26 06:52:02;;;;;;;;;;;;;;;;;;7367635;19;875;-65
2022/11/26 06:54:30;;;;;;;;;;;;;;;;;;7363541;19;1861;-66
2022/11/26 06:56:58;;;;;;;;;;;;;;;;;;7369368;19;2008;-66
2022/11/26 06:59:26;;;;;;;;;;;;;;;;;;7366058;19;890;-66
2022/11/26 07:01:55;;;;;;;;;;;;;;;;;;7367247;19;1866;-64
2022/11/26 07:04:23;;;;;;;;;;;;;;;;;;7364897;19;1306;-64
2022/11/26 07:06:51;;;;;;;;;;;;;;;;;;7366372;19;838;-65
2022/11/26 07:09:19;;;;;;;;;;;;;;;;;;7366146;19;807;-64
2022/11/26 07:11:47;;;;;;;;;;;;;;;;;;7364965;19;835;-64
2022/11/26 07:14:16;;;;;;;;;;;;;;;;;;7363361;19;1870;-65
2022/11/26 07:16:44;;;;;;;;;;;;;;;;;;7367955;19;1723;-66
2022/11/26 07:19:12;;;;;;;;;;;;;;;;;;7367111;19;1817;-65
2022/11/26 07:21:40;;;;;;;;;;;;;;;;;;7365827;19;807;-66
2022/11/26 07:24:08;;;;;;;;;;;;;;;;;;7364406;19;1294;-66
2022/11/26 07:26:36;;;;;;;;;;;;;;;;;;7365729;19;806;-66
2022/11/26 07:29:04;;;;;;;;;;;;;;;;;;7365599;19;827;-65
2022/11/26 07:31:33;;;;;;;;;;;;;;;;;;7366255;19;879;-69
2022/11/26 07:34:01;;;;;;;;;;;;;;;;;;7365066;19;1855;-65
2022/11/26 07:36:29;;;;;;;;;;;;;;;;;;7368147;19;1839;-66
2022/11/26 07:38:57;;;;;;;;;;;;;;;;;;7364867;19;818;-65
2022/11/26 07:41:25;;;;;;;;;;;;;;;;;;7365625;19;815;-66
2022/11/26 07:43:53;;;;;;;;;;;;;;;;;;7366083;19;1734;-66
2022/11/26 07:46:21;;;;;;;;;;;;;;;;;;7371434;19;865;-66
2022/11/26 07:48:50;;;;;;;;;;;;;;;;;;7371742;19;863;-66
2022/11/26 07:51:18;;;;;;;;;;;;;;;;;;7375962;19;1655;-66
2022/11/26 07:53:46;;;;;;;;;;;;;;;;;;7374055;19;1958;-66
2022/11/26 07:56:14;;;;;;;;;;;;;;;;;;7373692;19;833;-66
2022/11/26 07:58:42;;;;;;;;;;;;;;;;;;7373859;19;864;-65
2022/11/26 08:01:10;;;;;;;;;;;;;;;;;;7374849;19;796;-64
2022/11/26 08:03:39;;;;;;;;;;;;;;;;;;7374427;19;1350;-65
2022/11/26 08:06:07;;;;;;;;;;;;;;;;;;7375208;19;817;-66
2022/11/26 08:08:35;;;;;;;;;;;;;;;;;;7374238;19;1905;-67
2022/11/26 08:11:04;;;;;;;;;;;;;;;;;;7373214;19;831;-66
2022/11/26 08:13:32;;;;;;;;;;;;;;;;;;7372051;19;1862;-66
2022/11/26 08:16:00;;;;;;;;;;;;;;;;;;7372869;19;825;-66
2022/11/26 08:18:28;;;;;;;;;;;;;;;;;;7371212;19;801;-67
2022/11/26 08:20:56;;;;;;;;;;;;;;;;;;7371552;19;958;-66
2022/11/26 08:23:24;;;;;;;;;;;;;;;;;;7370826;19;1338;-69
2022/11/26 08:25:52;;;;;;;;;;;;;;;;;;7372770;19;1900;-64
2022/11/26 08:28:20;;;;;;;;;;;;;;;;;;7370372;19;807;-66
2022/11/26 08:30:49;;;;;;;;;;;;;;;;;;7370578;19;850;-67
2022/11/26 08:33:17;;;;;;;;;;;;;;;;;;7374418;19;1843;-64
2022/11/26 08:35:45;;;;;;;;;;;;;;;;;;7371700;19;854;-64
2022/11/26 08:38:13;;;;;;;;;;;;;;;;;;7369983;19;800;-64
2022/11/26 08:40:41;;;;;;;;;;;;;;;;;;7371657;19;846;-64
2022/11/26 08:43:09;;;;;;;;;;;;;;;;;;7374083;19;1903;-65
2022/11/26 08:45:37;;;;;;;;;;;;;;;;;;7372259;19;799;-64
2022/11/26 08:48:06;;;;;;;;;;;;;;;;;;7369843;19;859;-64
2022/11/26 08:50:34;;;;;;;;;;;;;;;;;;7370567;19;1078;-64
2022/11/26 08:53:02;;;;;;;;;;;;;;;;;;7371433;19;1369;-65
2022/11/26 08:55:30;;;;;;;;;;;;;;;;;;7368624;19;1810;-64
2022/11/26 08:57:58;;;;;;;;;;;;;;;;;;7374363;19;1741;-64
2022/11/26 09:00:26;;;;;;;;;;;;;;;;;;7373721;19;1653;-64
2022/11/26 09:02:55;;;;;;;;;;;;;;;;;;7371602;19;2137;-64
2022/11/26 09:05:23;;;;;;;;;;;;;;;;;;7373376;19;1583;-64
2022/11/26 09:07:51;;;;;;;;;;;;;;;;;;7368898;19;820;-64
2022/11/26 09:10:19;;;;;;;;;;;;;;;;;;7370008;19;871;-65
2022/11/26 09:12:47;;;;;;;;;;;;;;;;;;7370159;19;827;-67
2022/11/26 09:15:15;;;;;;;;;;;;;;;;;;7367319;19;1845;-65
2022/11/26 09:17:43;;;;;;;;;;;;;;;;;;7373037;19;1952;-66
2022/11/26 09:20:12;;;;;;;;;;;;;;;;;;7369997;19;780;-66
2022/11/26 09:22:40;;;;;;;;;;;;;;;;;;7368343;19;791;-66
2022/11/26 09:25:08;;;;;;;;;;;;;;;;;;7365575;19;1282;-64
2022/11/26 09:27:36;;;;;;;;;;;;;;;;;;7373156;19;1892;-62
2022/11/26 09:30:04;;;;;;;;;;;;;;;;;;7369391;19;800;-64
2022/11/26 09:32:33;;;;;;;;;;;;;;;;;;7370240;19;1912;-65
2022/11/26 09:35:01;;;;;;;;;;;;;;;;;;7366543;19;1850;-66
2022/11/26 09:37:29;;;;;;;;;;;;;;;;;;7369561;19;814;-65
2022/11/26 09:39:57;;;;;;;;;;;;;;;;;;7368759;19;773;-62
2022/11/26 09:42:25;;;;;;;;;;;;;;;;;;7370176;19;1893;-62
2022/11/26 09:44:53;;;;;;;;;;;;;;;;;;7369042;19;2023;-67
2022/11/26 09:47:22;;;;;;;;;;;;;;;;;;7368041;19;847;-67
2022/11/26 09:49:50;;;;;;;;;;;;;;;;;;7372307;19;1897;-66
2022/11/26 09:52:18;;;;;;;;;;;;;;;;;;7368728;19;799;-66
2022/11/26 09:54:46;;;;;;;;;;;;;;;;;;7367042;19;1857;-67
2022/11/26 09:57:14;;;;;;;;;;;;;;;;;;7368925;19;862;-66
2022/11/26 09:59:42;;;;;;;;;;;;;;;;;;7367934;19;796;-66
2022/11/26 10:02:10;;;;;;;;;;;;;;;;;;7372926;19;1668;-66
2022/11/26 10:04:39;;;;;;;;;;;;;;;;;;7366260;19;1271;-65
2022/11/26 10:07:07;;;;;;;;;;;;;;;;;;7366126;19;938;-65
2022/11/26 10:09:35;;;;;;;;;;;;;;;;;;7367268;19;858;-67
2022/11/26 10:12:03;;;;;;;;;;;;;;;;;;7368605;19;773;-66
2022/11/26 10:14:32;;;;;;;;;;;;;;;;;;7365802;19;1842;-67
2022/11/26 10:17:00;;;;;;;;;;;;;;;;;;7368620;19;828;-67
2022/11/26 10:19:28;;;;;;;;;;;;;;;;;;7366990;19;834;-68
2022/11/26 10:21:56;;;;;;;;;;;;;;;;;;7367100;19;803;-67
2022/11/26 10:24:24;;;;;;;;;;;;;;;;;;7365296;19;1255;-66
2022/11/26 10:26:52;;;;;;;;;;;;;;;;;;7367329;19;902;-66
2022/11/26 10:29:20;;;;;;;;;;;;;;;;;;7367175;19;850;-66
2022/11/26 10:31:48;;;;;;;;;;;;;;;;;;7367650;19;974;-64
2022/11/26 10:34:17;;;;;;;;;;;;;;;;;;7366097;19;1865;-64
2022/11/26 10:36:45;;;;;;;;;;;;;;;;;;7368182;19;883;-66
2022/11/26 10:39:13;;;;;;;;;;;;;;;;;;7368319;19;873;-65
2022/11/26 10:41:41;;;;;;;;;;;;;;;;;;7368598;19;848;-66
2022/11/26 10:44:09;;;;;;;;;;;;;;;;;;7364555;19;1438;-67
2022/11/26 10:46:39;;;;;;;;;;;;;;;;;;7367550;19;855;-67
2022/11/26 10:49:07;;;;;;;;;;;;;;;;;;7367290;19;910;-66
2022/11/26 10:51:36;;;;;;;;;;;;;;;;;;7369413;19;859;-66
2022/11/26 10:54:06;;;;;;;;;;;;;;;;;;7365125;19;1850;-65
2022/11/26 10:56:34;;;;;;;;;;;;;;;;;;7367334;19;779;-67
2022/11/26 10:59:02;;;;;;;;;;;;;;;;;;7365989;19;1829;-67
2022/11/26 11:01:30;;;;;;;;;;;;;;;;;;7371012;19;1931;-65
2022/11/26 11:03:58;;;;;;;;;;;;;;;;;;7365233;19;1271;-65
2022/11/26 11:06:27;;;;;;;;;;;;;;;;;;7370691;19;1632;-66
2022/11/26 11:08:55;;;;;;;;;;;;;;;;;;7366565;19;761;-65
2022/11/26 11:11:24;;;;;;;;;;;;;;;;;;7366542;19;864;-65
2022/11/26 11:13:52;;;;;;;;;;;;;;;;;;7365123;19;1349;-66
2022/11/26 11:16:20;;;;;;;;;;;;;;;;;;7363144;19;1846;-67
2022/11/26 11:18:48;;;;;;;;;;;;;;;;;;7365035;19;807;-66
2022/11/26 11:21:17;;;;;;;;;;;;;;;;;;7366435;19;813;-66
2022/11/26 11:23:45;;;;;;;;;;;;;;;;;;7365269;19;1354;-66
2022/11/26 11:26:13;;;;;;;;;;;;;;;;;;7365791;19;748;-65
2022/11/26 11:28:41;;;;;;;;;;;;;;;;;;7365457;19;803;-65
2022/11/26 11:31:09;;;;;;;;;;;;;;;;;;7365939;19;810;-66
2022/11/26 11:33:37;;;;;;;;;;;;;;;;;;7364238;19;1361;-67
2022/11/26 11:36:05;;;;;;;;;;;;;;;;;;7362426;19;1821;-66
2022/11/26 11:38:34;;;;;;;;;;;;;;;;;;7367562;19;1658;-67
2022/11/26 11:41:02;;;;;;;;;;;;;;;;;;7370249;19;1695;-67
2022/11/26 11:43:30;;;;;;;;;;;;;;;;;;7366737;19;1905;-67
2022/11/26 11:45:58;;;;;;;;;;;;;;;;;;7365354;19;882;-66
2022/11/26 11:48:26;;;;;;;;;;;;;;;;;;7365341;19;887;-65
2022/11/26 11:50:54;;;;;;;;;;;;;;;;;;7366333;19;805;-65
2022/11/26 11:53:22;;;;;;;;;;;;;;;;;;7364620;19;1337;-64
2022/11/26 11:55:51;;;;;;;;;;;;;;;;;;7365035;19;1849;-63
2022/11/26 11:58:19;;;;;;;;;;;;;;;;;;7364405;19;883;-64
2022/11/26 12:00:47;;;;;;;;;;;;;;;;;;7365422;19;810;-64
2022/11/26 12:03:15;;;;;;;;;;;;;;;;;;7364839;19;1291;-64
2022/11/26 12:05:43;;;;;;;;;;;;;;;;;;7364100;19;1122;-65
2022/11/26 12:08:12;;;;;;;;;;;;;;;;;;7364990;19;804;-65
2022/11/26 12:10:40;;;;;;;;;;;;;;;;;;7364444;19;855;-67
2022/11/26 12:13:08;;;;;;;;;;;;;;;;;;7364494;19;1307;-65
2022/11/26 12:15:36;;;;;;;;;;;;;;;;;;7362736;19;1850;-64
2022/11/26 12:18:04;;;;;;;;;;;;;;;;;;7364053;19;800;-65
2022/11/26 12:20:32;;;;;;;;;;;;;;;;;;7364750;19;847;-63
2022/11/26 12:23:00;;;;;;;;;;;;;;;;;;7363883;19;1340;-62
2022/11/26 12:25:29;;;;;;;;;;;;;;;;;;7361147;19;832;-65
2022/11/26 12:27:58;;;;;;;;;;;;;;;;;;7363080;19;775;-65
2022/11/26 12:30:27;;;;;;;;;;;;;;;;;;7366759;19;783;-65
2022/11/26 12:32:55;;;;;;;;;;;;;;;;;;7373814;19;1457;-65
2022/11/26 12:35:23;;;;;;;;;;;;;;;;;;7369392;19;1848;-65
2022/11/26 12:37:51;;;;;;;;;;;;;;;;;;7369547;19;744;-66
2022/11/26 12:40:20;;;;;;;;;;;;;;;;;;7370688;19;824;-65
2022/11/26 12:42:48;;;;;;;;;;;;;;;;;;7370942;19;811;-65
2022/11/26 12:45:16;;;;;;;;;;;;;;;;;;7368451;19;1385;-65
2022/11/26 12:47:45;;;;;;;;;;;;;;;;;;7368334;19;827;-65
2022/11/26 12:50:13;;;;;;;;;;;;;;;;;;7371816;19;1837;-65
2022/11/26 12:52:41;;;;;;;;;;;;;;;;;;7369792;19;847;-65
2022/11/26 12:55:09;;;;;;;;;;;;;;;;;;7368143;19;1846;-66
2022/11/26 12:57:37;;;;;;;;;;;;;;;;;;7369254;19;1002;-65
2022/11/26 13:00:06;;;;;;;;;;;;;;;;;;7370241;19;880;-65
2022/11/26 13:02:35;;;;;;;;;;;;;;;;;;7370033;19;875;-64
2022/11/26 13:05:03;;;;;;;;;;;;;;;;;;7371210;19;1869;-64
2022/11/26 13:07:31;;;;;;;;;;;;;;;;;;7373000;19;1878;-64
2022/11/26 13:09:59;;;;;;;;;;;;;;;;;;7369565;19;803;-64
2022/11/26 13:12:27;;;;;;;;;;;;;;;;;;7369587;19;844;-64
2022/11/26 13:14:55;;;;;;;;;;;;;;;;;;7368055;19;1857;-65
2022/11/26 13:17:23;;;;;;;;;;;;;;;;;;7370556;19;2135;-64
2022/11/26 13:19:51;;;;;;;;;;;;;;;;;;7370147;19;1952;-65
2022/11/26 13:22:20;;;;;;;;;;;;;;;;;;7369204;19;809;-63
2022/11/26 13:24:48;;;;;;;;;;;;;;;;;;7366944;19;1283;-62
2022/11/26 13:27:16;;;;;;;;;;;;;;;;;;7369003;19;850;-65
2022/11/26 13:29:44;;;;;;;;;;;;;;;;;;7368669;19;871;-66
2022/11/26 13:32:12;;;;;;;;;;;;;;;;;;7371081;19;1884;-64
2022/11/26 13:34:40;;;;;;;;;;;;;;;;;;7369750;19;1936;-64
2022/11/26 13:37:08;;;;;;;;;;;;;;;;;;7370732;19;1853;-64
2022/11/26 13:39:37;;;;;;;;;;;;;;;;;;7368238;19;952;-64
2022/11/26 13:42:05;;;;;;;;;;;;;;;;;;7366328;19;846;-63
2022/11/26 13:44:33;;;;;;;;;;;;;;;;;;7367260;19;1271;-63
2022/11/26 13:47:01;;;;;;;;;;;;;;;;;;7373046;19;1881;-64
2022/11/26 13:49:29;;;;;;;;;;;;;;;;;;7367820;19;891;-63
2022/11/26 13:51:57;;;;;;;;;;;;;;;;;;7368462;19;769;-65
2022/11/26 13:54:25;;;;;;;;;;;;;;;;;;7367007;19;1267;-63
2022/11/26 13:56:54;;;;;;;;;;;;;;;;;;7366498;19;1841;-63
2022/11/26 13:59:22;;;;;;;;;;;;;;;;;;7368399;19;840;-64
2022/11/26 14:01:50;;;;;;;;;;;;;;;;;;7373276;19;1545;-64
2022/11/26 14:04:18;;;;;;;;;;;;;;;;;;7366994;19;1356;-64
2022/11/26 14:06:46;;;;;;;;;;;;;;;;;;7368158;19;891;-64
2022/11/26 14:09:14;;;;;;;;;;;;;;;;;;7367512;19;902;-64
2022/11/26 14:11:42;;;;;;;;;;;;;;;;;;7368007;19;860;-63
2022/11/26 14:14:11;;;;;;;;;;;;;;;;;;7365630;19;1895;-64
2022/11/26 14:16:39;;;;;;;;;;;;;;;;;;7366094;19;1849;-62
2022/11/26 14:19:07;;;;;;;;;;;;;;;;;;7366785;19;803;-62
2022/11/26 14:21:35;;;;;;;;;;;;;;;;;;7367527;19;791;-62
2022/11/26 14:24:03;;;;;;;;;;;;;;;;;;7366454;19;1275;-63
2022/11/26 14:26:33;;;;;;;;;;;;;;;;;;7370532;19;1922;-63
2022/11/26 14:29:01;;;;;;;;;;;;;;;;;;7368376;19;1823;-64
2022/11/26 14:31:29;;;;;;;;;;;;;;;;;;7367346;19;827;-64
2022/11/26 14:33:57;;;;;;;;;;;;;;;;;;7366366;19;1246;-62
2022/11/26 14:36:26;;;;;;;;;;;;;;;;;;7365533;19;1865;-64
2022/11/26 14:38:54;;;;;;;;;;;;;;;;;;7368150;19;878;-63
2022/11/26 14:41:22;;;;;;;;;;;;;;;;;;7370235;19;851;-63
2022/11/26 14:43:50;;;;;;;;;;;;;;;;;;7370640;19;1705;-62
2022/11/26 14:46:18;;;;;;;;;;;;;;;;;;7373035;19;1829;-63
2022/11/26 14:48:46;;;;;;;;;;;;;;;;;;7369358;19;792;-63
2022/11/26 14:51:14;;;;;;;;;;;;;;;;;;7369309;19;827;-63
2022/11/26 14:53:42;;;;;;;;;;;;;;;;;;7368356;19;1847;-66
2022/11/26 14:56:11;;;;;;;;;;;;;;;;;;7366117;19;1845;-63
2022/11/26 14:58:39;;;;;;;;;;;;;;;;;;7369913;19;1983;-63
2022/11/26 15:01:07;;;;;;;;;;;;;;;;;;7368558;19;808;-62
2022/11/26 15:03:35;;;;;;;;;;;;;;;;;;7367085;19;1423;-63
2022/11/26 15:06:03;;;;;;;;;;;;;;;;;;7367182;19;810;-63
2022/11/26 15:08:31;;;;;;;;;;;;;;;;;;7366181;19;767;-64
2022/11/26 15:10:59;;;;;;;;;;;;;;;;;;7367160;19;1699;-62
2022/11/26 15:13:28;;;;;;;;;;;;;;;;;;7366108;19;1267;-64
2022/11/26 15:15:56;;;;;;;;;;;;;;;;;;7366739;19;1826;-63
2022/11/26 15:18:24;;;;;;;;;;;;;;;;;;7366424;19;847;-64
2022/11/26 15:20:52;;;;;;;;;;;;;;;;;;7367480;19;914;-65
2022/11/26 15:23:20;;;;;;;;;;;;;;;;;;7366383;19;1368;-63
2022/11/26 15:25:48;;;;;;;;;;;;;;;;;;7367202;19;1614;-60
2022/11/26 15:28:17;;;;;;;;;;;;;;;;;;7364381;19;796;-61
2022/11/26 15:30:45;;;;;;;;;;;;;;;;;;7366563;19;819;-64
2022/11/26 15:33:13;;;;;;;;;;;;;;;;;;7366216;19;1204;-64
2022/11/26 15:35:42;;;;;;;;;;;;;;;;;;7365881;19;1856;-63
2022/11/26 15:38:10;;;;;;;;;;;;;;;;;;7365565;19;934;-64
2022/11/26 15:40:38;;;;;;;;;;;;;;;;;;7369000;19;1834;-64
2022/11/26 15:43:06;;;;;;;;;;;;;;;;;;7364614;19;1276;-64
2022/11/26 15:45:35;;;;;;;;;;;;;;;;;;7366090;19;864;-64
2022/11/26 15:48:03;;;;;;;;;;;;;;;;;;7364577;19;859;-64
2022/11/26 15:50:31;;;;;;;;;;;;;;;;;;7366194;19;826;-64
2022/11/26 15:52:59;;;;;;;;;;;;;;;;;;7365785;19;1351;-64
2022/11/26 15:55:27;;;;;;;;;;;;;;;;;;7369009;19;2114;-64
2022/11/26 15:57:55;;;;;;;;;;;;;;;;;;7365445;19;855;-64
2022/11/26 16:00:23;;;;;;;;;;;;;;;;;;7366571;19;819;-65
2022/11/26 16:02:53;;;;;;;;;;;;;;;;;;7367434;19;851;-63
2022/11/26 16:05:21;;;;;;;;;;;;;;;;;;7369251;19;2127;-64
2022/11/26 16:07:49;;;;;;;;;;;;;;;;;;7374501;19;1747;-67
2022/11/26 16:10:18;;;;;;;;;;;;;;;;;;7377604;19;1868;-64
2022/11/26 16:12:46;;;;;;;;;;;;;;;;;;7373435;19;871;-65
2022/11/26 16:15:14;;;;;;;;;;;;;;;;;;7371211;19;1314;-62
2022/11/26 16:17:42;;;;;;;;;;;;;;;;;;7369420;19;1897;-63
2022/11/26 16:20:10;;;;;;;;;;;;;;;;;;7370319;19;771;-62
2022/11/26 16:22:38;;;;;;;;;;;;;;;;;;7375501;19;1870;-62
2022/11/26 16:25:06;;;;;;;;;;;;;;;;;;7374360;19;1726;-65
2022/11/26 16:27:35;;;;;;;;;;;;;;;;;;7371802;19;695;-61
2022/11/26 16:30:03;;;;;;;;;;;;;;;;;;7371058;19;812;-61
2022/11/26 16:32:31;;;;;;;;;;;;;;;;;;7370920;19;858;-63
2022/11/26 16:34:59;;;;;;;;;;;;;;;;;;7368723;19;1270;-65
2022/11/26 16:37:27;;;;;;;;;;;;;;;;;;7367277;19;1829;-63
2022/11/26 16:39:56;;;;;;;;;;;;;;;;;;7371249;19;2120;-63
2022/11/26 16:42:24;;;;;;;;;;;;;;;;;;7374038;19;1781;-64
2022/11/26 16:44:52;;;;;;;;;;;;;;;;;;7369376;19;1271;-63
2022/11/26 16:47:20;;;;;;;;;;;;;;;;;;7370956;19;791;-63
2022/11/26 16:49:48;;;;;;;;;;;;;;;;;;7370569;19;1850;-63
2022/11/26 16:52:16;;;;;;;;;;;;;;;;;;7370434;19;824;-64
2022/11/26 16:54:44;;;;;;;;;;;;;;;;;;7367811;19;1277;-64
2022/11/26 16:57:12;;;;;;;;;;;;;;;;;;7370408;19;1859;-64
2022/11/26 16:59:41;;;;;;;;;;;;;;;;;;7369588;19;839;-63
2022/11/26 17:02:09;;;;;;;;;;;;;;;;;;7371080;19;1846;-63
2022/11/26 17:04:37;;;;;;;;;;;;;;;;;;7368886;19;1270;-63
2022/11/26 17:07:05;;;;;;;;;;;;;;;;;;7370507;19;835;-64
2022/11/26 17:09:33;;;;;;;;;;;;;;;;;;7370229;19;867;-64
2022/11/26 17:12:01;;;;;;;;;;;;;;;;;;7370917;19;821;-62
2022/11/26 17:14:29;;;;;;;;;;;;;;;;;;7372228;19;1838;-62
2022/11/26 17:16:58;;;;;;;;;;;;;;;;;;7371392;19;1834;-63
2022/11/26 17:19:26;;;;;;;;;;;;;;;;;;7371130;19;906;-61